Time;durP1;ratioP1;P1;durP2;ratioP2;P2;SDS_P1;SDS_P2;PMS_P1;PMS_P2;Temp;Humidity;BMP_temperature;BMP_pressure;BME280_temperature;BME280_humidity;BME280_pressure;Samples;Min_cycle;Max_cycle;Signal;HPM_P1;HPM_P2
2021/11/08 00:02:17;;;;;;;8.83;6.73;;;;;;;;;;5097791;28;20316;-64
2021/11/08 00:04:45;;;;;;;8.30;6.70;;;;;;;;;;5097986;28;20205;-64
2021/11/08 00:07:15;;;;;;;12.50;6.90;;;;;;;;;;5097851;28;20209;-64
2021/11/08 00:09:44;;;;;;;8.23;6.23;;;;;;;;;;5097381;28;20312;-64
2021/11/08 00:12:12;;;;;;;9.43;6.53;;;;;;;;;;5097976;28;20213;-64
2021/11/08 00:14:41;;;;;;;9.17;5.83;;;;;;;;;;5097401;28;20206;-64
2021/11/08 00:17:17;;;;;;;12.50;6.97;;;;;;;;;;5097829;28;20227;-64
2021/11/08 00:19:58;;;;;;;8.33;5.97;;;;;;;;;;5090162;28;20217;-64
2021/11/08 00:22:26;;;;;;;9.30;6.77;;;;;;;;;;5075726;28;20201;-64
2021/11/08 00:24:55;;;;;;;8.43;6.23;;;;;;;;;;5076980;28;20688;-64
2021/11/08 00:27:23;;;;;;;8.73;6.43;;;;;;;;;;5077024;28;20681;-64
2021/11/08 00:29:51;;;;;;;9.03;5.80;;;;;;;;;;5093247;28;20231;-64
2021/11/08 00:32:19;;;;;;;8.00;5.93;;;;;;;;;;5082298;28;20645;-64
2021/11/08 00:34:49;;;;;;;9.50;6.07;;;;;;;;;;5076919;28;20210;-64
2021/11/08 00:37:17;;;;;;;7.90;5.73;;;;;;;;;;5076809;28;20212;-62
2021/11/08 00:39:44;;;;;;;8.97;6.07;;;;;;;;;;5091485;28;20229;-64
2021/11/08 00:42:13;;;;;;;8.77;7.07;;;;;;;;;;5081241;28;20289;-63
2021/11/08 00:44:41;;;;;;;8.20;6.27;;;;;;;;;;5076746;28;20240;-62
2021/11/08 00:47:09;;;;;;;8.13;5.97;;;;;;;;;;5076955;28;20209;-63
2021/11/08 00:49:38;;;;;;;8.97;6.07;;;;;;;;;;5077104;28;20232;-63
2021/11/08 00:52:09;;;;;;;8.60;6.43;;;;;;;;;;5076995;28;20285;-64
2021/11/08 00:54:37;;;;;;;9.13;6.90;;;;;;;;;;5077156;28;20210;-64
2021/11/08 00:57:08;;;;;;;7.43;6.10;;;;;;;;;;5079911;28;20210;-62
2021/11/08 00:59:36;;;;;;;6.70;6.00;;;;;;;;;;5080767;28;20241;-63
2021/11/08 01:02:05;;;;;;;7.33;5.80;;;;;;;;;;5080634;28;20248;-64
2021/11/08 01:04:33;;;;;;;7.80;6.07;;;;;;;;;;5080866;28;20289;-64
2021/11/08 01:07:02;;;;;;;9.50;5.67;;;;;;;;;;5090991;28;20243;-64
2021/11/08 01:09:32;;;;;;;9.90;5.77;;;;;;;;;;5101144;28;20247;-63
2021/11/08 01:12:01;;;;;;;8.80;5.73;;;;;;;;;;5101687;28;20202;-64
2021/11/08 01:14:29;;;;;;;7.60;5.67;;;;;;;;;;5100939;28;20237;-62
2021/11/08 01:16:58;;;;;;;6.77;5.83;;;;;;;;;;5100572;28;20289;-64
2021/11/08 01:19:27;;;;;;;6.93;5.90;;;;;;;;;;5098534;28;20303;-64
2021/11/08 01:22:03;;;;;;;8.70;6.10;;;;;;;;;;5082881;28;20222;-63
2021/11/08 01:24:34;;;;;;;7.60;5.90;;;;;;;;;;5079724;28;20228;-63
2021/11/08 01:27:03;;;;;;;6.83;6.00;;;;;;;;;;5080441;28;20212;-62
2021/11/08 01:29:31;;;;;;;6.57;5.57;;;;;;;;;;5093226;28;20228;-64
2021/11/08 01:32:01;;;;;;;8.43;6.03;;;;;;;;;;5081477;28;20233;-64
2021/11/08 01:34:30;;;;;;;9.13;6.20;;;;;;;;;;5079984;28;20552;-64
2021/11/08 01:36:59;;;;;;;8.80;6.40;;;;;;;;;;5079781;28;20206;-64
2021/11/08 01:39:32;;;;;;;7.53;5.63;;;;;;;;;;5091954;28;20252;-64
2021/11/08 01:42:05;;;;;;;9.63;6.33;;;;;;;;;;5100222;28;20229;-63
2021/11/08 01:44:33;;;;;;;7.93;6.33;;;;;;;;;;5100071;28;20212;-63
2021/11/08 01:47:02;;;;;;;9.50;6.70;;;;;;;;;;5100056;28;20304;-62
2021/11/08 01:49:30;;;;;;;8.00;6.27;;;;;;;;;;5100164;28;20255;-64
2021/11/08 01:51:59;;;;;;;10.80;6.27;;;;;;;;;;5100309;28;20202;-62
2021/11/08 01:54:28;;;;;;;7.93;5.97;;;;;;;;;;5100001;28;20567;-65
2021/11/08 01:56:58;;;;;;;7.90;6.30;;;;;;;;;;5093834;28;20591;-63
2021/11/08 01:59:28;;;;;;;7.77;5.93;;;;;;;;;;5084612;28;20270;-62
2021/11/08 02:01:57;;;;;;;9.03;6.37;;;;;;;;;;5090715;28;20784;-64
2021/11/08 02:04:26;;;;;;;6.83;6.00;;;;;;;;;;5090951;28;20653;-62
2021/11/08 02:06:54;;;;;;;7.37;6.30;;;;;;;;;;5090487;28;20623;-62
2021/11/08 02:09:22;;;;;;;7.90;6.47;;;;;;;;;;5094857;28;20225;-63
2021/11/08 02:11:50;;;;;;;7.07;5.67;;;;;;;;;;5092527;28;20235;-64
2021/11/08 02:14:18;;;;;;;10.53;6.60;;;;;;;;;;5089763;28;20206;-64
2021/11/08 02:16:47;;;;;;;7.83;6.60;;;;;;;;;;5095486;28;20273;-62
2021/11/08 02:19:15;;;;;;;8.53;6.10;;;;;;;;;;5095229;28;20728;-64
2021/11/08 02:21:45;;;;;;;7.83;6.53;;;;;;;;;;5094503;28;20217;-64
2021/11/08 02:24:16;;;;;;;7.87;6.57;;;;;;;;;;5092994;28;20280;-63
2021/11/08 02:26:46;;;;;;;7.40;6.17;;;;;;;;;;5090787;28;20209;-63
2021/11/08 02:29:14;;;;;;;6.93;5.40;;;;;;;;;;5089803;28;20229;-64
2021/11/08 02:31:43;;;;;;;10.27;6.37;;;;;;;;;;5090516;28;20204;-64
2021/11/08 02:34:11;;;;;;;8.83;6.67;;;;;;;;;;5090992;28;20197;-64
2021/11/08 02:36:42;;;;;;;9.83;5.90;;;;;;;;;;5092278;28;20197;-64
2021/11/08 02:39:16;;;;;;;6.80;5.53;;;;;;;;;;5091341;28;20227;-64
2021/11/08 02:41:44;;;;;;;8.97;6.10;;;;;;;;;;5094784;28;20742;-64
2021/11/08 02:44:13;;;;;;;7.93;5.60;;;;;;;;;;5094547;28;20280;-63
2021/11/08 02:46:42;;;;;;;6.80;5.67;;;;;;;;;;5096141;28;20208;-63
2021/11/08 02:49:12;;;;;;;5.87;5.20;;;;;;;;;;5096262;28;20583;-63
2021/11/08 02:51:46;;;;;;;7.97;5.50;;;;;;;;;;5093627;28;20740;-64
2021/11/08 02:54:25;;;;;;;6.77;5.50;;;;;;;;;;5092633;28;20205;-63
2021/11/08 02:56:53;;;;;;;8.33;5.53;;;;;;;;;;5092006;28;20203;-64
2021/11/08 02:59:22;;;;;;;6.93;5.20;;;;;;;;;;5094865;28;20232;-64
2021/11/08 03:01:54;;;;;;;7.30;5.27;;;;;;;;;;5095273;28;20221;-64
2021/11/08 03:04:26;;;;;;;7.07;4.80;;;;;;;;;;5099071;28;20216;-64
2021/11/08 03:06:54;;;;;;;6.17;4.90;;;;;;;;;;5098266;28;20679;-64
2021/11/08 03:09:26;;;;;;;6.70;5.17;;;;;;;;;;5098570;28;20230;-64
2021/11/08 03:11:54;;;;;;;7.80;5.43;;;;;;;;;;5098914;28;20292;-64
2021/11/08 03:14:25;;;;;;;10.97;4.87;;;;;;;;;;5098190;28;20206;-64
2021/11/08 03:16:55;;;;;;;8.63;5.20;;;;;;;;;;5098580;28;20989;-63
2021/11/08 03:19:26;;;;;;;6.37;4.83;;;;;;;;;;5097790;28;20225;-64
2021/11/08 03:21:56;;;;;;;7.30;4.87;;;;;;;;;;5098132;28;20225;-64
2021/11/08 03:24:37;;;;;;;6.33;4.70;;;;;;;;;;5095022;28;20204;-64
2021/11/08 03:27:08;;;;;;;5.77;4.40;;;;;;;;;;5091305;28;20202;-65
2021/11/08 03:29:36;;;;;;;6.33;4.27;;;;;;;;;;5084119;28;20295;-64
2021/11/08 03:32:05;;;;;;;6.10;4.23;;;;;;;;;;5077886;28;20661;-64
2021/11/08 03:34:37;;;;;;;5.77;4.30;;;;;;;;;;5077967;28;20205;-64
2021/11/08 03:37:05;;;;;;;4.00;3.23;;;;;;;;;;5077628;28;20201;-64
2021/11/08 03:39:34;;;;;;;4.73;3.57;;;;;;;;;;5090627;28;20328;-64
2021/11/08 03:42:03;;;;;;;6.47;4.70;;;;;;;;;;5079668;28;20309;-64
2021/11/08 03:44:31;;;;;;;5.67;4.17;;;;;;;;;;5077807;28;20209;-64
2021/11/08 03:46:59;;;;;;;4.00;3.60;;;;;;;;;;5077827;28;20212;-64
2021/11/08 03:49:27;;;;;;;5.00;3.73;;;;;;;;;;5078073;28;20240;-64
2021/11/08 03:51:56;;;;;;;4.90;3.80;;;;;;;;;;5077737;28;20203;-64
2021/11/08 03:54:24;;;;;;;4.93;3.70;;;;;;;;;;5077916;28;20206;-64
2021/11/08 03:56:53;;;;;;;7.37;4.47;;;;;;;;;;5077758;28;20216;-64
2021/11/08 03:59:21;;;;;;;4.60;3.37;;;;;;;;;;5077489;28;20229;-64
2021/11/08 04:01:50;;;;;;;4.87;3.57;;;;;;;;;;5077574;28;20226;-64
2021/11/08 04:04:18;;;;;;;4.03;3.40;;;;;;;;;;5077507;28;20202;-64
2021/11/08 04:06:46;;;;;;;5.53;3.30;;;;;;;;;;5084985;28;20553;-64
2021/11/08 04:09:16;;;;;;;6.07;3.57;;;;;;;;;;5097868;28;20236;-64
2021/11/08 04:11:45;;;;;;;3.37;3.07;;;;;;;;;;5097721;28;20201;-64
2021/11/08 04:14:15;;;;;;;8.43;3.97;;;;;;;;;;5097489;28;20564;-65
2021/11/08 04:16:44;;;;;;;5.03;3.27;;;;;;;;;;5097496;28;20216;-64
2021/11/08 04:19:13;;;;;;;6.10;3.20;;;;;;;;;;5097538;28;20346;-64
2021/11/08 04:21:42;;;;;;;6.00;3.90;;;;;;;;;;5097452;28;20752;-63
2021/11/08 04:24:10;;;;;;;7.17;3.70;;;;;;;;;;5097653;28;20233;-64
2021/11/08 04:26:39;;;;;;;4.90;3.70;;;;;;;;;;5097568;28;20730;-64
2021/11/08 04:29:07;;;;;;;3.60;3.23;;;;;;;;;;5087426;28;20226;-64
2021/11/08 04:31:38;;;;;;;7.67;4.27;;;;;;;;;;5081083;28;20209;-64
2021/11/08 04:34:17;;;;;;;5.80;3.50;;;;;;;;;;5081604;28;20208;-64
2021/11/08 04:39:41;;;;;;;4.53;3.50;;;;;;;;;;5076606;28;20229;-64
2021/11/08 04:42:14;;;;;;;5.27;3.57;;;;;;;;;;5082673;28;20210;-64
2021/11/08 04:50:20;;;;;;;5.87;3.43;;;;;;;;;;5063004;28;20217;-65
2021/11/08 04:56:00;;;;;;;4.80;3.53;;;;;;;;;;5089528;28;20571;-64
2021/11/08 05:23:45;;;;;;;7.23;4.30;;;;;;;;;;5080588;28;20288;-64
2021/11/08 05:31:57;;;;;;;6.63;4.83;;;;;;;;;;5099759;28;20262;-64
2021/11/08 05:34:25;;;;;;;6.03;4.13;;;;;;;;;;5100430;28;20670;-64
2021/11/08 05:36:54;;;;;;;10.87;4.30;;;;;;;;;;5100487;28;20214;-64
2021/11/08 05:39:22;;;;;;;6.63;4.67;;;;;;;;;;5089130;28;20226;-64
2021/11/08 05:41:50;;;;;;;7.23;4.50;;;;;;;;;;5079503;28;20259;-64
2021/11/08 05:44:18;;;;;;;7.57;4.60;;;;;;;;;;5084474;28;20222;-67
2021/11/08 05:46:46;;;;;;;6.10;4.90;;;;;;;;;;5087890;28;20203;-67
2021/11/08 05:49:14;;;;;;;9.17;5.23;;;;;;;;;;5091434;28;20218;-67
2021/11/08 05:51:42;;;;;;;7.90;4.53;;;;;;;;;;5091320;28;20210;-67
2021/11/08 05:54:11;;;;;;;7.53;5.60;;;;;;;;;;5091557;28;20205;-68
2021/11/08 05:56:51;;;;;;;7.50;4.80;;;;;;;;;;5095658;28;20206;-68
2021/11/08 05:59:39;;;;;;;8.33;5.27;;;;;;;;;;5097262;28;20221;-67
2021/11/08 06:49:45;;;;;;;6.63;4.63;;;;;;;;;;5035667;28;20226;-64
2021/11/08 06:52:14;;;;;;;10.73;5.43;;;;;;;;;;5035541;28;20210;-64
2021/11/08 06:54:45;;;;;;;6.03;3.87;;;;;;;;;;5061234;28;20204;-64
2021/11/08 06:57:14;;;;;;;7.93;5.20;;;;;;;;;;5089749;28;20201;-63
2021/11/08 06:59:44;;;;;;;6.07;4.47;;;;;;;;;;5089365;28;20689;-63
2021/11/08 07:02:13;;;;;;;8.73;5.60;;;;;;;;;;5089373;28;20233;-64
2021/11/08 07:04:41;;;;;;;7.03;4.63;;;;;;;;;;5089742;28;20217;-63
2021/11/08 07:07:09;;;;;;;11.47;5.83;;;;;;;;;;5092128;28;20197;-63
2021/11/08 07:09:38;;;;;;;10.43;5.67;;;;;;;;;;5078237;28;20237;-63
2021/11/08 07:12:07;;;;;;;10.57;5.20;;;;;;;;;;5077756;28;20216;-64
2021/11/08 07:14:35;;;;;;;8.80;4.40;;;;;;;;;;5077966;28;20202;-63
2021/11/08 07:17:04;;;;;;;7.03;4.40;;;;;;;;;;5077882;28;20206;-64
2021/11/08 07:19:32;;;;;;;8.20;4.93;;;;;;;;;;5077963;28;20715;-64
2021/11/08 07:22:01;;;;;;;11.37;4.77;;;;;;;;;;5077859;28;20210;-64
2021/11/08 07:24:29;;;;;;;7.07;4.80;;;;;;;;;;5077827;28;20244;-63
2021/11/08 07:26:57;;;;;;;7.93;4.50;;;;;;;;;;5077924;28;20292;-63
2021/11/08 07:29:27;;;;;;;9.97;5.37;;;;;;;;;;5090045;28;20230;-63
2021/11/08 07:31:57;;;;;;;7.13;4.43;;;;;;;;;;5098196;28;20205;-64
2021/11/08 07:34:26;;;;;;;9.77;4.30;;;;;;;;;;5082927;28;20645;-64
2021/11/08 07:36:54;;;;;;;8.10;4.90;;;;;;;;;;5077426;28;20206;-64
2021/11/08 07:39:23;;;;;;;7.50;4.60;;;;;;;;;;5097255;28;20696;-64
2021/11/08 07:41:51;;;;;;;10.57;5.30;;;;;;;;;;5097983;28;20768;-63
2021/11/08 07:44:19;;;;;;;7.63;5.30;;;;;;;;;;5097448;28;20228;-63
2021/11/08 07:46:47;;;;;;;6.47;4.43;;;;;;;;;;5097813;28;20212;-63
2021/11/08 07:49:15;;;;;;;9.80;4.53;;;;;;;;;;5097487;28;20716;-64
2021/11/08 07:51:46;;;;;;;10.50;4.77;;;;;;;;;;5097371;28;20205;-63
2021/11/08 07:54:14;;;;;;;10.70;4.43;;;;;;;;;;5088892;28;20237;-63
2021/11/08 07:56:42;;;;;;;9.77;5.30;;;;;;;;;;5077348;28;20771;-63
2021/11/08 07:59:10;;;;;;;8.70;4.93;;;;;;;;;;5076720;28;20226;-63
2021/11/08 08:01:38;;;;;;;9.83;4.63;;;;;;;;;;5087279;28;20214;-63
2021/11/08 08:04:06;;;;;;;6.70;4.63;;;;;;;;;;5088540;28;20222;-64
2021/11/08 08:06:34;;;;;;;7.37;4.60;;;;;;;;;;5090777;28;20204;-64
2021/11/08 08:09:05;;;;;;;15.87;6.17;;;;;;;;;;5090605;28;20219;-63
2021/11/08 08:11:33;;;;;;;9.50;4.23;;;;;;;;;;5088029;28;20202;-63
2021/11/08 08:14:01;;;;;;;11.03;4.83;;;;;;;;;;5090326;28;20281;-63
2021/11/08 08:16:29;;;;;;;8.37;4.47;;;;;;;;;;5086989;28;20198;-64
2021/11/08 08:18:57;;;;;;;9.77;4.87;;;;;;;;;;5089434;28;20281;-63
2021/11/08 08:21:25;;;;;;;8.57;4.00;;;;;;;;;;5088125;28;20565;-64
2021/11/08 08:23:55;;;;;;;8.33;4.03;;;;;;;;;;5089709;28;20228;-63
2021/11/08 08:26:26;;;;;;;8.10;4.17;;;;;;;;;;5090771;28;20201;-63
2021/11/08 08:28:55;;;;;;;9.50;4.00;;;;;;;;;;5088321;28;20214;-63
2021/11/08 08:31:23;;;;;;;9.53;4.10;;;;;;;;;;5088498;28;20255;-63
2021/11/08 08:33:51;;;;;;;8.17;4.00;;;;;;;;;;5088525;28;20293;-64
2021/11/08 08:36:19;;;;;;;7.47;3.97;;;;;;;;;;5088522;28;20234;-63
2021/11/08 08:38:47;;;;;;;7.07;3.93;;;;;;;;;;5088535;28;20229;-64
2021/11/08 08:41:15;;;;;;;6.13;3.80;;;;;;;;;;5090505;28;20225;-63
2021/11/08 08:43:45;;;;;;;9.90;4.10;;;;;;;;;;5088227;28;20198;-63
2021/11/08 08:46:13;;;;;;;9.13;3.80;;;;;;;;;;5089350;28;20212;-64
2021/11/08 08:48:42;;;;;;;8.70;3.70;;;;;;;;;;5088320;28;20275;-64
2021/11/08 08:51:10;;;;;;;6.77;3.90;;;;;;;;;;5094620;28;20204;-63
2021/11/08 08:53:38;;;;;;;5.20;3.77;;;;;;;;;;5114436;28;20204;-63
2021/11/08 08:56:19;;;;;;;8.43;4.03;;;;;;;;;;5109492;28;20208;-63
2021/11/08 08:58:49;;;;;;;7.23;4.27;;;;;;;;;;5111216;28;20300;-64
2021/11/08 09:01:17;;;;;;;6.90;3.70;;;;;;;;;;5113736;28;20260;-63
2021/11/08 09:03:45;;;;;;;6.63;3.73;;;;;;;;;;5114979;28;20264;-64
2021/11/08 09:06:13;;;;;;;12.07;4.40;;;;;;;;;;5113572;28;20228;-64
2021/11/08 09:08:42;;;;;;;7.20;3.80;;;;;;;;;;5115153;28;20264;-64
2021/11/08 09:11:10;;;;;;;4.40;3.43;;;;;;;;;;5115868;28;20239;-64
2021/11/08 09:13:39;;;;;;;8.53;4.67;;;;;;;;;;5107367;28;20399;-64
2021/11/08 09:16:12;;;;;;;7.23;3.77;;;;;;;;;;5086115;28;20213;-64
2021/11/08 09:18:40;;;;;;;11.37;3.93;;;;;;;;;;5100362;28;20232;-64
2021/11/08 09:21:08;;;;;;;9.73;4.53;;;;;;;;;;5099314;28;20233;-64
2021/11/08 09:23:37;;;;;;;9.90;3.90;;;;;;;;;;5084517;28;20281;-63
2021/11/08 09:26:05;;;;;;;11.20;3.87;;;;;;;;;;5090852;28;20226;-64
2021/11/08 09:28:33;;;;;;;4.57;3.50;;;;;;;;;;5092606;28;20220;-64
2021/11/08 09:31:02;;;;;;;10.70;3.43;;;;;;;;;;5091525;28;20199;-64
2021/11/08 09:33:32;;;;;;;8.60;3.30;;;;;;;;;;5091692;28;20568;-63
2021/11/08 09:36:04;;;;;;;9.17;3.60;;;;;;;;;;5091331;28;20209;-63
2021/11/08 09:38:33;;;;;;;6.33;3.23;;;;;;;;;;5103392;28;20228;-63
2021/11/08 09:41:02;;;;;;;7.63;3.37;;;;;;;;;;5094130;28;20212;-64
2021/11/08 09:43:31;;;;;;;8.67;3.33;;;;;;;;;;5079702;28;20210;-64
2021/11/08 09:46:00;;;;;;;7.53;3.70;;;;;;;;;;5087243;28;20222;-64
2021/11/08 09:48:29;;;;;;;6.53;3.77;;;;;;;;;;5091108;28;20218;-64
2021/11/08 09:50:59;;;;;;;5.73;3.00;;;;;;;;;;5091144;28;20205;-64
2021/11/08 09:53:27;;;;;;;15.37;3.93;;;;;;;;;;5090928;28;20198;-63
2021/11/08 09:55:55;;;;;;;9.20;3.50;;;;;;;;;;5092224;28;20204;-63
2021/11/08 09:58:23;;;;;;;5.13;3.63;;;;;;;;;;5090051;28;20229;-63
2021/11/08 10:00:54;;;;;;;6.37;3.13;;;;;;;;;;5091952;28;20194;-64
2021/11/08 10:03:24;;;;;;;8.73;2.97;;;;;;;;;;5090513;28;20221;-64
2021/11/08 10:05:54;;;;;;;6.30;2.83;;;;;;;;;;5091501;28;20214;-63
2021/11/08 10:08:25;;;;;;;7.60;3.33;;;;;;;;;;5088783;28;20308;-64
2021/11/08 10:10:53;;;;;;;6.17;3.10;;;;;;;;;;5097739;28;20206;-64
2021/11/08 10:13:23;;;;;;;10.53;3.83;;;;;;;;;;5095036;28;20202;-64
2021/11/08 10:15:53;;;;;;;9.50;3.20;;;;;;;;;;5079516;28;20232;-64
2021/11/08 10:18:22;;;;;;;7.93;3.37;;;;;;;;;;5078958;28;20261;-64
2021/11/08 10:20:51;;;;;;;6.40;3.20;;;;;;;;;;5079270;28;20220;-64
2021/11/08 10:23:19;;;;;;;4.47;3.13;;;;;;;;;;5079012;28;20288;-64
2021/11/08 10:25:49;;;;;;;7.50;3.70;;;;;;;;;;5078697;28;20226;-64
2021/11/08 10:28:20;;;;;;;10.07;3.30;;;;;;;;;;5082212;28;20224;-64
2021/11/08 10:30:49;;;;;;;9.83;3.87;;;;;;;;;;5078766;28;20227;-64
2021/11/08 10:33:17;;;;;;;9.27;3.90;;;;;;;;;;5081212;28;20244;-64
2021/11/08 10:35:47;;;;;;;6.80;3.60;;;;;;;;;;5089389;28;20638;-64
2021/11/08 10:38:16;;;;;;;9.10;3.47;;;;;;;;;;5093145;28;20233;-64
2021/11/08 10:40:45;;;;;;;7.80;3.00;;;;;;;;;;5092876;28;20288;-64
2021/11/08 10:43:23;;;;;;;10.57;3.13;;;;;;;;;;5098608;28;20759;-65
2021/11/08 10:45:52;;;;;;;6.63;2.67;;;;;;;;;;5099001;28;20692;-65
2021/11/08 10:48:21;;;;;;;6.07;2.77;;;;;;;;;;5098822;28;20282;-65
2021/11/08 10:50:51;;;;;;;9.43;3.80;;;;;;;;;;5097072;28;20209;-65
2021/11/08 10:53:19;;;;;;;7.40;3.33;;;;;;;;;;5089467;28;20280;-65
2021/11/08 10:55:54;;;;;;;10.43;3.00;;;;;;;;;;5088077;28;20198;-65
2021/11/08 10:58:24;;;;;;;10.40;3.17;;;;;;;;;;5095059;28;20221;-65
2021/11/08 11:00:54;;;;;;;9.73;3.20;;;;;;;;;;5098439;28;20234;-64
2021/11/08 11:03:28;;;;;;;9.83;3.10;;;;;;;;;;5098235;28;20603;-64
2021/11/08 11:05:57;;;;;;;7.10;2.77;;;;;;;;;;5098531;28;20737;-64
2021/11/08 11:08:25;;;;;;;9.17;2.63;;;;;;;;;;5098249;28;20244;-65
2021/11/08 11:10:54;;;;;;;5.90;2.60;;;;;;;;;;5098695;28;20283;-64
2021/11/08 11:13:24;;;;;;;4.60;3.10;;;;;;;;;;5082673;28;20206;-64
2021/11/08 11:16:00;;;;;;;9.20;3.57;;;;;;;;;;5077887;28;20204;-66
2021/11/08 11:18:29;;;;;;;7.63;2.90;;;;;;;;;;5077461;28;20225;-65
2021/11/08 11:20:57;;;;;;;4.93;3.13;;;;;;;;;;5077572;28;20212;-65
2021/11/08 11:23:27;;;;;;;5.93;3.37;;;;;;;;;;5077693;28;20579;-64
2021/11/08 11:26:01;;;;;;;6.90;3.43;;;;;;;;;;5077690;28;20320;-64
2021/11/08 11:28:32;;;;;;;6.37;3.30;;;;;;;;;;5081815;28;20214;-64
2021/11/08 11:31:00;;;;;;;5.17;3.00;;;;;;;;;;5097777;28;20206;-64
2021/11/08 11:33:29;;;;;;;5.10;3.30;;;;;;;;;;5078079;28;20214;-64
2021/11/08 11:36:03;;;;;;;6.23;2.87;;;;;;;;;;5078019;28;20616;-64
2021/11/08 11:38:34;;;;;;;7.07;2.70;;;;;;;;;;5093097;28;20657;-64
2021/11/08 11:41:03;;;;;;;11.93;2.93;;;;;;;;;;5089145;28;20622;-64
2021/11/08 11:43:34;;;;;;;2.90;2.47;;;;;;;;;;5091672;28;20201;-64
2021/11/08 11:46:02;;;;;;;7.67;2.97;;;;;;;;;;5097874;28;20229;-64
2021/11/08 11:48:31;;;;;;;7.90;2.87;;;;;;;;;;5097802;28;20228;-64
2021/11/08 11:51:08;;;;;;;5.40;2.57;;;;;;;;;;5097843;28;20205;-64
2021/11/08 11:53:36;;;;;;;7.23;2.60;;;;;;;;;;5096964;28;20580;-64
2021/11/08 11:56:05;;;;;;;8.37;2.60;;;;;;;;;;5097236;28;20734;-65
2021/11/08 11:58:34;;;;;;;5.80;2.27;;;;;;;;;;5097233;28;20588;-64
2021/11/08 12:01:03;;;;;;;3.93;2.40;;;;;;;;;;5097531;28;20673;-64
2021/11/08 12:03:32;;;;;;;5.93;2.97;;;;;;;;;;5097242;28;20233;-64
2021/11/08 12:06:00;;;;;;;11.83;3.40;;;;;;;;;;5097496;28;20236;-64
2021/11/08 12:08:32;;;;;;;8.50;3.23;;;;;;;;;;5097188;28;20722;-64
2021/11/08 12:10:59;;;;;;;8.00;2.50;;;;;;;;;;5097559;28;20571;-64
2021/11/08 12:13:29;;;;;;;4.50;2.53;;;;;;;;;;5097148;28;20205;-64
2021/11/08 12:16:10;;;;;;;12.60;3.30;;;;;;;;;;5097565;28;20201;-64
2021/11/08 12:18:38;;;;;;;12.03;4.70;;;;;;;;;;5097770;28;20316;-64
2021/11/08 12:21:11;;;;;;;5.33;3.20;;;;;;;;;;5097629;28;20205;-64
2021/11/08 12:23:39;;;;;;;7.07;2.50;;;;;;;;;;5097531;28;20288;-64
2021/11/08 12:26:17;;;;;;;4.97;2.17;;;;;;;;;;5097309;28;20225;-64
2021/11/08 12:28:47;;;;;;;7.60;2.70;;;;;;;;;;5090359;28;20226;-64
2021/11/08 12:31:20;;;;;;;6.10;2.30;;;;;;;;;;5087064;28;20198;-64
2021/11/08 12:33:59;;;;;;;10.30;3.10;;;;;;;;;;5097393;28;20259;-64
2021/11/08 12:36:27;;;;;;;5.30;2.40;;;;;;;;;;5096922;28;20227;-64
2021/11/08 12:38:58;;;;;;;2.93;1.93;;;;;;;;;;5096976;28;20561;-64
2021/11/08 12:41:31;;;;;;;4.50;2.40;;;;;;;;;;5092610;28;20623;-64
2021/11/08 12:44:04;;;;;;;6.63;2.20;;;;;;;;;;5076880;28;20203;-64
2021/11/08 12:46:36;;;;;;;9.90;2.70;;;;;;;;;;5076904;28;20228;-64
2021/11/08 12:49:09;;;;;;;6.93;2.70;;;;;;;;;;5076955;28;20229;-64
2021/11/08 12:51:38;;;;;;;8.00;2.80;;;;;;;;;;5085203;28;20214;-64
2021/11/08 12:54:08;;;;;;;6.10;2.30;;;;;;;;;;5101107;28;20265;-64
2021/11/08 12:56:42;;;;;;;6.10;2.37;;;;;;;;;;5101230;28;20206;-64
2021/11/08 12:59:15;;;;;;;5.07;2.23;;;;;;;;;;5100286;28;20236;-64
2021/11/08 13:01:46;;;;;;;6.73;2.67;;;;;;;;;;5100918;28;20210;-64
2021/11/08 13:04:16;;;;;;;5.30;2.47;;;;;;;;;;5100859;28;20258;-64
2021/11/08 13:06:45;;;;;;;4.73;2.33;;;;;;;;;;5100481;28;20730;-64
2021/11/08 13:09:16;;;;;;;5.93;2.07;;;;;;;;;;5100843;28;20232;-64
2021/11/08 13:11:46;;;;;;;2.80;1.90;;;;;;;;;;5100563;28;20683;-64
2021/11/08 13:14:25;;;;;;;6.87;2.63;;;;;;;;;;5100498;28;20205;-64
2021/11/08 13:17:06;;;;;;;7.13;2.40;;;;;;;;;;5100815;28;20269;-64
2021/11/08 13:19:35;;;;;;;8.83;2.23;;;;;;;;;;5100669;28;20343;-64
2021/11/08 13:22:11;;;;;;;5.97;2.03;;;;;;;;;;5100580;28;20206;-64
2021/11/08 13:24:39;;;;;;;4.83;2.53;;;;;;;;;;5100454;28;20212;-64
2021/11/08 13:27:08;;;;;;;3.77;2.03;;;;;;;;;;5100478;28;20229;-64
2021/11/08 13:29:37;;;;;;;7.00;2.30;;;;;;;;;;5085913;28;20218;-64
2021/11/08 13:32:12;;;;;;;10.80;2.67;;;;;;;;;;5079886;28;20210;-64
2021/11/08 13:34:40;;;;;;;22.07;3.40;;;;;;;;;;5080147;28;20205;-64
2021/11/08 13:37:08;;;;;;;9.60;2.70;;;;;;;;;;5079725;28;20206;-64
2021/11/08 13:39:36;;;;;;;12.20;3.03;;;;;;;;;;5105008;28;20224;-64
2021/11/08 13:42:05;;;;;;;12.57;2.10;;;;;;;;;;5081781;28;20234;-63
2021/11/08 13:44:33;;;;;;;6.23;3.00;;;;;;;;;;5079793;28;20221;-64
2021/11/08 13:47:01;;;;;;;5.60;2.10;;;;;;;;;;5079853;28;20230;-64
2021/11/08 13:49:31;;;;;;;5.23;2.07;;;;;;;;;;5079785;28;20291;-64
2021/11/08 13:52:00;;;;;;;6.03;2.00;;;;;;;;;;5079813;28;20202;-64
2021/11/08 13:54:30;;;;;;;4.17;1.90;;;;;;;;;;5079772;28;20285;-64
2021/11/08 13:57:00;;;;;;;5.97;1.50;;;;;;;;;;5079571;28;20198;-64
2021/11/08 13:59:29;;;;;;;3.77;1.83;;;;;;;;;;5079119;28;20236;-64
2021/11/08 14:02:00;;;;;;;10.17;2.53;;;;;;;;;;5079305;28;20206;-64
2021/11/08 14:04:34;;;;;;;5.97;2.13;;;;;;;;;;5079193;28;20206;-64
2021/11/08 14:07:02;;;;;;;4.27;2.57;;;;;;;;;;5079172;28;20230;-64
2021/11/08 14:09:30;;;;;;;6.37;2.17;;;;;;;;;;5079525;28;20340;-64
2021/11/08 14:12:01;;;;;;;5.27;2.20;;;;;;;;;;5084775;28;20233;-64
2021/11/08 14:14:30;;;;;;;4.57;2.07;;;;;;;;;;5099390;28;20237;-64
2021/11/08 14:17:08;;;;;;;6.77;2.10;;;;;;;;;;5099407;28;20212;-64
2021/11/08 14:19:38;;;;;;;3.63;1.90;;;;;;;;;;5099465;28;20353;-64
2021/11/08 14:22:06;;;;;;;3.53;1.73;;;;;;;;;;5099271;28;20212;-64
2021/11/08 14:24:37;;;;;;;3.27;2.20;;;;;;;;;;5099234;28;20205;-64
2021/11/08 14:27:06;;;;;;;3.70;2.07;;;;;;;;;;5099369;28;20228;-64
2021/11/08 14:29:34;;;;;;;5.10;2.07;;;;;;;;;;5084879;28;20225;-64
2021/11/08 14:32:05;;;;;;;5.03;1.80;;;;;;;;;;5078883;28;20289;-64
2021/11/08 14:34:36;;;;;;;2.60;1.60;;;;;;;;;;5078469;28;20210;-64
2021/11/08 14:37:10;;;;;;;3.57;1.60;;;;;;;;;;5078762;28;20298;-64
2021/11/08 14:39:40;;;;;;;5.50;1.80;;;;;;;;;;5093022;28;20780;-64
2021/11/08 14:42:09;;;;;;;11.07;2.20;;;;;;;;;;5085878;28;20254;-64
2021/11/08 14:44:38;;;;;;;6.93;1.80;;;;;;;;;;5078599;28;20202;-65
2021/11/08 14:47:15;;;;;;;5.97;1.80;;;;;;;;;;5078217;28;20208;-64
2021/11/08 14:49:53;;;;;;;10.97;1.90;;;;;;;;;;5078616;28;20727;-63
2021/11/08 14:52:28;;;;;;;6.67;2.00;;;;;;;;;;5078297;28;20673;-64
2021/11/08 14:54:56;;;;;;;6.67;2.10;;;;;;;;;;5078561;28;20206;-64
2021/11/08 14:57:24;;;;;;;5.70;1.60;;;;;;;;;;5078566;28;20209;-64
2021/11/08 14:59:54;;;;;;;4.60;2.03;;;;;;;;;;5078418;28;20232;-64
2021/11/08 15:02:25;;;;;;;4.20;1.90;;;;;;;;;;5098582;28;20255;-64
2021/11/08 15:04:56;;;;;;;4.97;2.30;;;;;;;;;;5098769;28;20287;-64
2021/11/08 15:07:33;;;;;;;5.03;2.00;;;;;;;;;;5098705;28;20216;-64
2021/11/08 15:10:04;;;;;;;5.17;1.80;;;;;;;;;;5098505;28;20212;-63
2021/11/08 15:12:34;;;;;;;3.13;1.77;;;;;;;;;;5098121;28;20672;-63
2021/11/08 15:15:05;;;;;;;7.63;2.17;;;;;;;;;;5078397;28;20285;-64
2021/11/08 15:17:35;;;;;;;4.90;1.80;;;;;;;;;;5078270;28;20203;-64
2021/11/08 15:20:19;;;;;;;4.67;2.00;;;;;;;;;;5077817;28;20216;-63
2021/11/08 15:22:50;;;;;;;5.90;1.93;;;;;;;;;;5077585;28;20579;-63
2021/11/08 15:25:22;;;;;;;5.63;1.70;;;;;;;;;;5078164;28;20210;-64
2021/11/08 15:28:20;;;;;;;6.57;2.43;;;;;;;;;;5077989;28;20236;-64
2021/11/08 15:30:51;;;;;;;3.23;1.40;;;;;;;;;;5012074;28;20208;-64
2021/11/08 15:33:21;;;;;;;4.00;1.93;;;;;;;;;;5074543;28;20209;-64
2021/11/08 15:35:50;;;;;;;5.50;2.30;;;;;;;;;;5098037;28;20211;-64
2021/11/08 15:38:21;;;;;;;3.93;2.30;;;;;;;;;;5097443;28;20213;-64
2021/11/08 15:40:50;;;;;;;4.47;2.33;;;;;;;;;;5097791;28;20288;-64
2021/11/08 15:43:19;;;;;;;4.47;1.70;;;;;;;;;;5097834;28;20209;-63
2021/11/08 15:45:47;;;;;;;5.33;1.90;;;;;;;;;;5097594;28;20572;-64
2021/11/08 15:48:16;;;;;;;4.63;1.90;;;;;;;;;;5097801;28;20229;-64
2021/11/08 15:50:44;;;;;;;7.93;2.20;;;;;;;;;;5097511;28;20215;-64
2021/11/08 15:53:12;;;;;;;2.83;1.67;;;;;;;;;;5097940;28;20212;-64
2021/11/08 15:55:42;;;;;;;5.73;1.77;;;;;;;;;;5098004;28;20205;-64
2021/11/08 15:58:10;;;;;;;9.17;2.40;;;;;;;;;;5097253;28;20228;-64
2021/11/08 16:00:39;;;;;;;3.50;1.80;;;;;;;;;;5091957;28;20212;-64
2021/11/08 16:03:08;;;;;;;3.67;2.20;;;;;;;;;;5077270;28;20731;-64
2021/11/08 16:05:36;;;;;;;7.40;2.20;;;;;;;;;;5077467;28;20202;-64
2021/11/08 16:08:04;;;;;;;6.83;2.00;;;;;;;;;;5077105;28;20230;-64
2021/11/08 16:10:32;;;;;;;12.50;2.30;;;;;;;;;;5077290;28;20206;-64
2021/11/08 16:13:01;;;;;;;4.60;2.43;;;;;;;;;;5076974;28;20210;-64
2021/11/08 16:15:31;;;;;;;5.13;2.43;;;;;;;;;;5077258;28;20202;-64
2021/11/08 16:17:59;;;;;;;3.40;2.17;;;;;;;;;;5077330;28;20257;-64
2021/11/08 16:20:28;;;;;;;7.63;2.70;;;;;;;;;;5076951;28;20205;-64
2021/11/08 16:22:56;;;;;;;6.03;2.50;;;;;;;;;;5077417;28;20210;-64
2021/11/08 16:25:25;;;;;;;9.40;2.80;;;;;;;;;;5078078;28;20202;-64
2021/11/08 16:27:54;;;;;;;4.70;2.00;;;;;;;;;;5082059;28;20210;-64